Nearby METAR Reports

 

KW29 - Stevensville, Maryland, USA
Distance from station: SSW 13mi, 21km
Updated: Thu, 16-Aug-2018 1:35pm EDT
Clear
Clear
 Wind from S
Wind: S 6 mph , 9 km/h
Temperature: 90°F , 32°C
Heat Index: 94°F , 34°C
Dew Point: 68°F , 20°C
Humidity: 49%
Barometer: 30.10 inHg , 1019.3 hPa
Clouds: Clear
Visibility: 10 miles , 16 km
2018/08/16 17:35 KW29 161735Z AUTO 18005KT 10SM CLR 32/20 A3010 RMK AO2
KMTN - Baltimore/Martin, Maryland, USA
Distance from station: NW 13mi, 22km
Updated: Thu, 16-Aug-2018 12:45pm EDT
Mostly cloudy
Mostly cloudy
 Wind from SE
Wind: SE 7 mph , 11 km/h
Temperature: 88°F , 31°C
Heat Index: 103°F , 39°C
Dew Point: 79°F , 26°C
Humidity: 75%
Barometer: 30.11 inHg , 1019.6 hPa
Clouds: Mostly cloudy
Visibility: 10 miles , 16 km
Cloud details: Mostly cloudy 10000 ft
Mostly cloudy 15000 ft
2018/08/16 16:45 KMTN 161645Z 13006KT 10SM BKN100 BKN150 31/26 A3011
 
KNAK - Annapolis/Naval, Maryland, USA
Distance from station: SW 18mi, 28km
Updated: Thu, 16-Aug-2018 12:54pm EDT
Clear
Clear
 Wind from ESE
Wind: ESE 12 mph , 19 km/h
Temperature: 86°F , 30°C
Heat Index: 93°F , 34°C
Dew Point: 73°F , 23°C
Humidity: 66%
Barometer: 30.10 inHg , 1019.3 hPa
Clouds: Clear
Visibility: 9 miles , 14 km
2018/08/16 16:54 KNAK 161654Z AUTO 11010KT 9SM CLR 30/23 A3010 RMK AO2 SLP195 T03000233 $
KAPG - Aberdeen/Phillip, Maryland, USA
Distance from station: NNE 21mi, 34km
Updated: Thu, 16-Aug-2018 12:55pm EDT
Mostly cloudy
Mostly cloudy
 Wind from calm
Wind: Calm
Temperature: 86°F , 30°C
Heat Index: 92°F , 33°C
Dew Point: 72°F , 22°C
Humidity: 62%
Barometer: 30.10 inHg , 1019.3 hPa
Clouds: Mostly cloudy
Visibility: 7 miles , 11 km
Cloud details: Few Clouds 5000 ft
Mostly cloudy 15000 ft
2018/08/16 16:55 KAPG 161655Z 00000KT 7SM FEW050 BKN150 30/22 A3010 RMK SLPNO $
 
KDMH - Baltimore/Dwntwn, Maryland, USA
Distance from station: WNW 21mi, 34km
Updated: Thu, 16-Aug-2018 12:54pm EDT

 
Temperature: 90°F , 32°C
Heat Index: 94°F , 34°C
Dew Point: 68°F , 20°C
Humidity: 49%
Barometer: 30.09 inHg , 1019 hPa
2018/08/16 16:54 KDMH 161654Z AUTO 32/20 A3009 RMK AO1 SLP190 T03220200
KBWI - Balto/Wash Intl, Maryland, USA
Distance from station: W 23mi, 37km
Updated: Thu, 16-Aug-2018 12:54pm EDT
Mostly cloudy
Mostly cloudy
 Wind from calm
Wind: Calm
Temperature: 90°F , 32°C
Heat Index: 96°F , 36°C
Dew Point: 70°F , 21°C
Humidity: 52%
Barometer: 30.09 inHg , 1019 hPa
Clouds: Mostly cloudy
Visibility: 10 miles , 16 km
Cloud details: Partly cloudy 5000 ft
Partly cloudy 16000 ft
Mostly cloudy 25000 ft
2018/08/16 16:54 KBWI 161654Z 00000KT 10SM SCT050TCU SCT160 BKN250 32/21 A3009 RMK AO2 SLP189 TCU W T03220211
 
KESN - Easton/Newnam, Maryland, USA
Distance from station: SSE 27mi, 44km
Updated: Thu, 16-Aug-2018 12:50pm EDT
Partly cloudy
Partly cloudy
 Wind from calm
Wind: Calm
Temperature: 88°F , 31°C
Heat Index: 96°F , 36°C
Dew Point: 73°F , 23°C
Humidity: 62%
Barometer: 30.14 inHg , 1020.7 hPa
Clouds: Partly cloudy
Visibility: 10 miles , 16 km
Cloud details: Partly cloudy 7000 ft
2018/08/16 16:50 KESN 161650Z 00000KT 10SM SCT070 31/23 A3014
KFME - Fort Meade, Maryland, USA
Distance from station: WSW 28mi, 45km
Updated: Thu, 16-Aug-2018 1:33pm EDT

 Wind from WSW
Wind: WSW 5 mph , 7 km/h
Temperature: 84°F , 29°C
Heat Index: 89°F , 32°C
Dew Point: 72°F , 22°C
Humidity: 66%
Barometer: 30.12 inHg , 1020 hPa
Visibility: 10 miles , 16 km
2018/08/16 17:33 KFME 161733Z AUTO 24004KT 10SM 29/22 A3012 RMK AO1
 
KCGS - College Park, Maryland, USA
Distance from station: WSW 38mi, 61km
Updated: Thu, 16-Aug-2018 1:34pm EDT
Mostly cloudy
Mostly cloudy
 Wind from SSW
Wind: SSW 6 mph , 9 km/h
Temperature: 90°F , 32°C
Heat Index: 93°F , 34°C
Dew Point: 66°F , 19°C
Humidity: 46%
Barometer: 30.09 inHg , 1019 hPa
Clouds: Mostly cloudy
Visibility: 10 miles , 16 km
Cloud details: Mostly cloudy 5000 ft
Mostly cloudy 7000 ft
2018/08/16 17:34 KCGS 161734Z AUTO 21005KT 10SM BKN050 BKN070 32/19 A3009 RMK AO1 T03200193
KADW - Andrews Afb, Maryland, USA
Distance from station: SW 41mi, 66km
Updated: Thu, 16-Aug-2018 12:55pm EDT
Partly cloudy
Partly cloudy
 Wind from SW
Wind: SW 12 mph , 19 km/h
Temperature: 88°F , 31°C
Heat Index: 92°F , 33°C
Dew Point: 68°F , 20°C
Humidity: 52%
Barometer: 30.11 inHg , 1019.6 hPa
Clouds: Partly cloudy
Visibility: 7 miles , 11 km
Cloud details: Few Clouds 1500 ft
Partly cloudy 20000 ft
2018/08/16 16:55 KADW 161655Z 22010KT 7SM FEW015 SCT200 31/20 A3011 RMK A02A SLPN019 10311 20211 RVRNO $
 
KDOV - Dover Afb, Delaware, USA
Distance from station: E 42mi, 68km
Updated: Thu, 16-Aug-2018 1:24pm EDT
Mostly cloudy
Mostly cloudy
 Wind from W
Wind: W 3 mph , 6 km/h
Temperature: 90°F , 32°C
Heat Index: 96°F , 36°C
Dew Point: 70°F , 21°C
Humidity: 52%
Barometer: 30.09 inHg , 1019 hPa
Clouds: Mostly cloudy
Visibility: 10 miles , 16 km
Cloud details: Few Clouds 5000 ft
Mostly cloudy 20000 ft
2018/08/16 17:24 KDOV 161724Z 27003KT 10SM FEW050 BKN200 32/21 A3009 RMK WND DATA ESTMD ALSTG ESTMD SLPNO RVRNO $
KCGE - Cambridge-Dorch, Maryland, USA
Distance from station: SSE 45mi, 73km
Updated: Thu, 16-Aug-2018 1:30pm EDT
Clear
Clear
 Wind from calm
Wind: Calm
Temperature: 86°F , 30°C
Heat Index: 91°F , 33°C
Dew Point: 70°F , 21°C
Humidity: 59%
Barometer: 30.11 inHg , 1019.6 hPa
Clouds: Clear
Visibility: 10 miles , 16 km
2018/08/16 17:30 KCGE 161730Z AUTO 00000KT 10SM CLR 30/21 A3011 RMK A01
 
KDCA - Washington/Natl, Washington D.c., USA
Distance from station: WSW 47mi, 76km
Updated: Thu, 16-Aug-2018 12:52pm EDT
Overcast
Overcast
 Wind from S
Wind: S 8 mph , 13 km/h
Temperature: 88°F , 31°C
Heat Index: 95°F , 35°C
Dew Point: 72°F , 22°C
Humidity: 59%
Barometer: 30.10 inHg , 1019.3 hPa
Clouds: Overcast
Visibility: 10 miles , 16 km
Cloud details: Few Clouds 4000 ft
Overcast 25000 ft
2018/08/16 16:52 KDCA 161652Z 17007KT 10SM FEW040 OVC250 31/22 A3010 RMK AO2 SLPNO T03110222
KGAI - Gaithersburg, Maryland, USA
Distance from station: W 49mi, 78km
Updated: Thu, 16-Aug-2018 12:56pm EDT
Mostly cloudy
Mostly cloudy
 Wind from WNW
Wind: WNW 7 mph , 11 km/h
Temperature: 86°F , 30°C
Heat Index: 92°F , 33°C
Dew Point: 72°F , 22°C
Humidity: 62%
Barometer: 30.14 inHg , 1020.7 hPa
Clouds: Mostly cloudy
Visibility: 10 miles , 16 km
Cloud details: Mostly cloudy 4500 ft
Mostly cloudy 6000 ft
2018/08/16 16:56 KGAI 161656Z AUTO 29006KT 10SM BKN045 BKN060 30/22 A3014 RMK AO2 SLP224 T03000217
 
KILG - Wilmington, Delaware, USA
Distance from station: NE 49mi, 79km
Updated: Thu, 16-Aug-2018 12:51pm EDT
Clear
Clear
 Wind from calm
Wind: Calm
Temperature: 86°F , 30°C
Heat Index: 91°F , 33°C
Dew Point: 70°F , 21°C
Humidity: 59%
Barometer: 30.10 inHg , 1019.3 hPa
Clouds: Clear
Visibility: 10 miles , 16 km
2018/08/16 16:51 KILG 161651Z 00000KT 10SM CLR 30/21 A3010 RMK AO2 SLP192 T03000206
KDMW - Carroll Cnty, Maryland, USA
Distance from station: NW 50mi, 80km
Updated: Thu, 16-Aug-2018 1:30pm EDT
Clear
Clear
 Wind from W
Wind: W 5 mph , 7 km/h
Temperature: 88°F , 31°C
Heat Index: 88°F , 31°C
Dew Point: 61°F , 16°C
Humidity: 40%
Barometer: 30.13 inHg , 1020.3 hPa
Clouds: Clear
Visibility: 10 miles , 16 km
2018/08/16 17:30 KDMW 161730Z AUTO 28004KT 10SM CLR 31/16 A3013 RMK AO2